createdAt,value
2023-05-17T00:01:16.916Z,5.20
2023-05-17T00:03:44.518Z,5.90
2023-05-17T00:06:12.271Z,5.10
2023-05-17T00:08:40.210Z,4.80
2023-05-17T00:11:07.770Z,5.10
2023-05-17T00:13:35.938Z,5.20
2023-05-17T00:16:06.064Z,4.40
2023-05-17T00:18:33.895Z,5.00
2023-05-17T00:21:02.095Z,4.20
2023-05-17T00:23:29.532Z,5.30
2023-05-17T00:25:57.110Z,5.00
2023-05-17T00:28:24.702Z,4.30
2023-05-17T00:30:52.134Z,4.90
2023-05-17T00:33:19.692Z,4.60
2023-05-17T00:35:47.553Z,4.00
2023-05-17T00:38:15.114Z,3.80
2023-05-17T00:40:42.567Z,4.30
2023-05-17T00:43:10.024Z,3.70
2023-05-17T00:45:37.490Z,4.10
2023-05-17T00:48:06.203Z,3.60
2023-05-17T00:50:33.833Z,3.90
2023-05-17T00:53:01.501Z,3.80
2023-05-17T00:55:29.180Z,3.60
2023-05-17T00:57:57.062Z,3.80
2023-05-17T01:00:24.471Z,3.90
2023-05-17T01:02:52.072Z,4.10
2023-05-17T01:05:19.591Z,3.40
2023-05-17T01:07:48.477Z,3.90
2023-05-17T01:10:16.349Z,3.40
2023-05-17T01:12:56.511Z,3.80
2023-05-17T01:15:29.326Z,4.00
2023-05-17T01:18:21.022Z,4.40
2023-05-17T01:23:35.070Z,3.60
2023-05-17T01:26:11.028Z,3.80
2023-05-17T01:28:38.909Z,3.80
2023-05-17T01:31:06.453Z,4.30
2023-05-17T01:33:34.105Z,4.30
2023-05-17T01:36:01.919Z,8.00
2023-05-17T01:38:29.640Z,14.60
2023-05-17T01:40:57.235Z,11.90
2023-05-17T01:43:49.948Z,4.20
2023-05-17T01:46:58.977Z,4.80
2023-05-17T01:49:33.090Z,11.00
2023-05-17T01:52:12.738Z,10.70
2023-05-17T01:55:25.484Z,5.20
2023-05-17T01:57:54.294Z,4.10
2023-05-17T02:00:22.734Z,6.60
2023-05-17T02:02:51.837Z,9.40
2023-05-17T02:05:20.330Z,6.70
2023-05-17T02:07:48.063Z,4.20
2023-05-17T02:10:15.733Z,5.20
2023-05-17T02:12:43.406Z,4.50
2023-05-17T02:15:12.402Z,7.70
2023-05-17T02:17:41.066Z,3.80
2023-05-17T02:20:09.438Z,5.20
2023-05-17T02:22:37.344Z,6.10
2023-05-17T02:25:06.265Z,3.50
2023-05-17T02:27:33.804Z,4.10
2023-05-17T02:30:02.465Z,4.00
2023-05-17T02:32:31.231Z,4.30
2023-05-17T02:34:58.911Z,3.70
2023-05-17T02:37:26.659Z,3.90
2023-05-17T02:39:54.009Z,3.80
2023-05-17T02:42:21.780Z,4.10
2023-05-17T02:44:53.112Z,3.10
2023-05-17T02:47:23.932Z,3.50
2023-05-17T02:49:52.128Z,3.50
2023-05-17T02:52:20.073Z,3.90
2023-05-17T02:54:48.400Z,3.60
2023-05-17T02:57:16.299Z,2.80
2023-05-17T02:59:44.209Z,4.00
2023-05-17T03:02:11.949Z,3.80
2023-05-17T03:04:39.813Z,3.70
2023-05-17T03:07:08.940Z,3.50
2023-05-17T03:09:37.821Z,4.00
2023-05-17T03:12:06.655Z,4.80
2023-05-17T03:14:34.774Z,4.20
2023-05-17T03:17:02.564Z,3.20
2023-05-17T03:19:31.166Z,3.60
2023-05-17T03:21:58.899Z,3.80
2023-05-17T03:24:26.966Z,4.50
2023-05-17T03:26:54.899Z,3.60
2023-05-17T03:29:23.108Z,3.20
2023-05-17T03:31:51.693Z,3.60
2023-05-17T03:34:19.554Z,3.60
2023-05-17T03:36:47.219Z,3.90
2023-05-17T03:39:15.087Z,3.10
2023-05-17T03:41:43.273Z,3.20
2023-05-17T03:44:11.331Z,3.40
2023-05-17T03:46:39.453Z,3.10
2023-05-17T03:49:07.210Z,2.70
2023-05-17T03:51:35.747Z,2.80
2023-05-17T03:54:03.554Z,2.70
2023-05-17T03:56:31.917Z,2.90
2023-05-17T03:58:59.413Z,2.70
2023-05-17T04:01:27.726Z,2.50
2023-05-17T04:03:55.333Z,2.60
2023-05-17T04:06:23.367Z,2.70
2023-05-17T04:08:51.634Z,2.40
2023-05-17T04:11:24.217Z,3.50
2023-05-17T04:13:52.180Z,4.60
2023-05-17T04:16:20.227Z,3.00
2023-05-17T04:18:48.008Z,2.60
2023-05-17T04:21:15.995Z,2.60
2023-05-17T04:23:43.784Z,2.50
2023-05-17T04:26:11.630Z,2.50
2023-05-17T04:28:40.510Z,3.10
2023-05-17T04:31:08.841Z,2.30
2023-05-17T04:33:37.337Z,2.70
2023-05-17T04:36:06.720Z,2.30
2023-05-17T04:38:35.144Z,2.60
2023-05-17T04:41:04.844Z,2.70
2023-05-17T04:43:33.869Z,15.10
2023-05-17T04:46:01.747Z,9.20
2023-05-17T04:48:31.463Z,3.10
2023-05-17T04:51:02.914Z,3.40
2023-05-17T04:55:59.428Z,3.40
2023-05-17T04:58:27.081Z,2.80
2023-05-17T05:00:57.103Z,2.10
2023-05-17T05:03:24.930Z,2.20
2023-05-17T05:05:53.913Z,2.80
2023-05-17T05:08:21.829Z,2.30
2023-05-17T05:10:49.393Z,2.90
2023-05-17T05:13:17.764Z,2.40
2023-05-17T05:15:45.871Z,2.90
2023-05-17T05:18:13.573Z,2.60
2023-05-17T05:20:41.970Z,2.20
2023-05-17T05:23:10.557Z,2.30
2023-05-17T05:25:38.266Z,2.50
2023-05-17T05:28:08.041Z,2.50
2023-05-17T05:30:36.818Z,2.80
2023-05-17T05:33:05.319Z,2.20
2023-05-17T05:35:33.066Z,2.70
2023-05-17T05:38:00.698Z,2.20
2023-05-17T05:40:28.698Z,2.20
2023-05-17T05:42:56.668Z,2.00
2023-05-17T05:45:24.139Z,6.60
2023-05-17T05:47:54.247Z,4.60
2023-05-17T05:50:22.038Z,2.60
2023-05-17T05:52:49.903Z,3.00
2023-05-17T05:55:17.594Z,2.80
2023-05-17T05:57:46.113Z,2.70
2023-05-17T06:00:14.397Z,2.20
2023-05-17T06:02:41.997Z,1.90
2023-05-17T06:05:09.816Z,2.10
2023-05-17T06:07:37.376Z,2.70
2023-05-17T06:10:05.496Z,1.90
2023-05-17T06:12:35.680Z,1.60
2023-05-17T06:15:04.215Z,4.20
2023-05-17T06:17:31.863Z,2.10
2023-05-17T06:19:59.516Z,1.90
2023-05-17T06:22:27.105Z,2.00
2023-05-17T06:24:54.801Z,2.20
2023-05-17T06:27:22.337Z,1.80
2023-05-17T06:29:50.125Z,1.40
2023-05-17T06:32:17.675Z,1.60
2023-05-17T06:34:45.441Z,1.40
2023-05-17T06:37:13.511Z,1.40
2023-05-17T06:39:41.150Z,1.40
2023-05-17T06:42:09.179Z,1.70
2023-05-17T06:44:36.729Z,1.50
2023-05-17T06:47:04.657Z,1.50
2023-05-17T06:49:32.284Z,1.40
2023-05-17T06:52:03.778Z,1.20
2023-05-17T06:54:31.851Z,2.00
2023-05-17T06:57:03.258Z,2.70
2023-05-17T06:59:31.165Z,1.60
2023-05-17T07:02:00.897Z,1.70
2023-05-17T07:04:28.378Z,1.40
2023-05-17T07:06:57.688Z,1.60
2023-05-17T07:09:25.398Z,1.60
2023-05-17T07:11:53.760Z,1.50
2023-05-17T07:14:21.433Z,1.50
2023-05-17T07:16:49.609Z,1.80
2023-05-17T07:19:17.386Z,1.80
2023-05-17T07:21:45.700Z,1.90
2023-05-17T07:24:13.210Z,1.90
2023-05-17T07:26:40.777Z,2.00
2023-05-17T07:29:08.225Z,2.20
2023-05-17T07:31:38.504Z,2.00
2023-05-17T07:34:06.307Z,1.90
2023-05-17T07:36:34.408Z,3.60
2023-05-17T07:39:02.352Z,1.90
2023-05-17T07:41:30.015Z,3.00
2023-05-17T07:43:57.679Z,4.40
2023-05-17T07:46:26.048Z,2.60
2023-05-17T07:48:55.840Z,2.50
2023-05-17T07:51:26.445Z,2.80
2023-05-17T07:53:54.269Z,2.60
2023-05-17T07:56:22.034Z,2.70
2023-05-17T07:58:49.804Z,3.00
2023-05-17T08:01:17.482Z,3.10
2023-05-17T08:03:51.220Z,3.70
2023-05-17T08:06:19.055Z,3.40
2023-05-17T08:08:46.890Z,4.00
2023-05-17T08:11:14.862Z,4.20
2023-05-17T08:13:42.928Z,5.60
2023-05-17T08:16:14.181Z,4.70
2023-05-17T08:18:43.837Z,4.60
2023-05-17T08:21:11.813Z,3.10
2023-05-17T08:23:40.993Z,2.70
2023-05-17T08:26:08.401Z,3.10
2023-05-17T08:28:36.196Z,3.40
2023-05-17T08:31:04.734Z,2.70
2023-05-17T08:33:33.961Z,2.90
2023-05-17T08:36:05.543Z,3.20
2023-05-17T08:38:34.652Z,2.30
2023-05-17T08:41:03.513Z,2.70
2023-05-17T08:43:33.908Z,2.70
2023-05-17T08:46:04.051Z,3.00
2023-05-17T08:48:31.729Z,2.50
2023-05-17T08:51:00.437Z,2.80
2023-05-17T08:53:28.304Z,3.50
2023-05-17T08:55:59.410Z,2.40
2023-05-17T08:58:41.081Z,2.60
2023-05-17T09:01:19.920Z,2.90
2023-05-17T09:03:51.295Z,2.30
2023-05-17T09:06:21.814Z,2.60
2023-05-17T09:08:53.205Z,4.20
2023-05-17T09:11:28.821Z,2.20
2023-05-17T09:14:03.307Z,2.20
2023-05-17T09:16:35.410Z,2.40
2023-05-17T09:19:03.908Z,2.00
2023-05-17T09:21:31.848Z,2.40
2023-05-17T09:24:06.264Z,2.10
2023-05-17T09:26:40.629Z,2.60
2023-05-17T09:29:17.945Z,2.40
2023-05-17T09:31:45.696Z,2.60
2023-05-17T09:34:13.124Z,2.50
2023-05-17T09:36:42.981Z,3.80
2023-05-17T09:39:14.829Z,2.90
2023-05-17T09:41:48.263Z,2.90
2023-05-17T09:44:15.811Z,3.20
2023-05-17T09:46:45.926Z,2.60
2023-05-17T09:49:14.266Z,2.60
2023-05-17T09:51:46.171Z,3.30
2023-05-17T09:54:13.603Z,2.60
2023-05-17T09:56:40.575Z,2.40
2023-05-17T09:59:13.328Z,2.80
2023-05-17T10:01:41.707Z,2.70
2023-05-17T10:04:12.789Z,2.40
2023-05-17T10:09:19.024Z,3.80
2023-05-17T10:11:46.940Z,2.40
2023-05-17T10:14:19.446Z,113.30
2023-05-17T10:16:47.333Z,60.10
2023-05-17T10:19:15.293Z,78.80
2023-05-17T10:21:43.603Z,18.90
2023-05-17T10:24:11.389Z,12.20
2023-05-17T10:26:38.911Z,5.60
2023-05-17T10:29:06.479Z,2.60
2023-05-17T10:31:34.432Z,3.30
2023-05-17T10:34:02.470Z,2.90
2023-05-17T10:36:30.415Z,2.80
2023-05-17T10:38:59.197Z,2.10
2023-05-17T10:41:28.082Z,2.80
2023-05-17T10:43:56.113Z,1.80
2023-05-17T10:46:23.979Z,2.30
2023-05-17T10:48:52.850Z,2.00
2023-05-17T10:51:24.766Z,1.70
2023-05-17T10:54:07.995Z,3.30
2023-05-17T10:56:35.610Z,1.40
2023-05-17T10:59:16.672Z,1.70
2023-05-17T11:04:38.994Z,3.10
2023-05-17T11:07:17.580Z,2.50
2023-05-17T11:09:46.143Z,2.10
2023-05-17T11:12:14.444Z,8.10
2023-05-17T11:14:48.639Z,6.20
2023-05-17T11:17:18.184Z,4.80
2023-05-17T11:19:55.408Z,5.30
2023-05-17T11:23:02.718Z,3.10
2023-05-17T11:25:37.241Z,1.60
2023-05-17T11:28:23.234Z,4.90
2023-05-17T11:30:54.285Z,2.70
2023-05-17T11:33:33.169Z,2.50
2023-05-17T11:36:05.704Z,2.30
2023-05-17T11:38:34.822Z,1.70
2023-05-17T11:41:27.008Z,1.80
2023-05-17T11:43:55.698Z,1.90
2023-05-17T11:46:24.327Z,2.90
2023-05-17T11:48:53.364Z,2.30
2023-05-17T11:51:23.854Z,2.90
2023-05-17T11:53:55.763Z,2.00
2023-05-17T11:56:35.512Z,1.90
2023-05-17T11:59:10.723Z,2.10
2023-05-17T12:01:46.424Z,1.60
2023-05-17T12:04:14.179Z,1.70
2023-05-17T12:06:41.831Z,2.20
2023-05-17T12:09:11.527Z,2.90
2023-05-17T12:11:39.807Z,3.40
2023-05-17T12:14:07.732Z,2.20
2023-05-17T12:16:39.059Z,3.30
2023-05-17T12:19:07.946Z,1.90
2023-05-17T12:21:35.570Z,2.20
2023-05-17T12:24:03.434Z,2.40
2023-05-17T12:26:31.204Z,2.00
2023-05-17T12:29:00.187Z,1.90
2023-05-17T12:31:42.032Z,1.80
2023-05-17T12:34:09.701Z,2.00
2023-05-17T12:36:37.812Z,2.20
2023-05-17T12:39:08.957Z,2.30
2023-05-17T12:41:37.540Z,1.90
2023-05-17T12:46:41.296Z,1.90
2023-05-17T12:49:09.337Z,3.20
2023-05-17T12:51:44.928Z,2.50
2023-05-17T12:54:16.735Z,2.40
2023-05-17T12:56:45.039Z,1.80
2023-05-17T12:59:17.554Z,1.80
2023-05-17T13:01:49.553Z,2.80
2023-05-17T13:04:17.972Z,2.50
2023-05-17T13:06:52.254Z,2.50
2023-05-17T13:09:22.143Z,2.30
2023-05-17T13:11:54.128Z,2.30
2023-05-17T13:14:52.041Z,2.20
2023-05-17T13:17:27.574Z,3.00
2023-05-17T13:19:58.184Z,2.10
2023-05-17T13:22:26.320Z,3.00
2023-05-17T13:24:54.526Z,2.80
2023-05-17T13:27:22.288Z,2.70
2023-05-17T13:29:49.892Z,2.80
2023-05-17T13:32:17.509Z,2.30
2023-05-17T13:34:45.177Z,2.70
2023-05-17T13:37:13.106Z,3.20
2023-05-17T13:39:41.896Z,2.20
2023-05-17T13:42:11.219Z,3.40
2023-05-17T13:44:39.241Z,3.80
2023-05-17T13:47:07.192Z,3.00
2023-05-17T13:49:34.730Z,2.80
2023-05-17T13:52:02.497Z,3.00
2023-05-17T13:54:29.974Z,3.20
2023-05-17T13:56:58.013Z,2.40
2023-05-17T13:59:25.572Z,3.10
2023-05-17T14:01:54.007Z,3.50
2023-05-17T14:04:21.712Z,3.20
2023-05-17T14:06:50.691Z,2.60
2023-05-17T14:09:20.752Z,3.50
2023-05-17T14:11:48.697Z,3.90
2023-05-17T14:14:16.459Z,4.30
2023-05-17T14:16:44.246Z,5.70
2023-05-17T14:19:12.119Z,2.90
2023-05-17T14:21:40.055Z,3.70
2023-05-17T14:24:07.620Z,6.00
2023-05-17T14:26:35.315Z,3.00
2023-05-17T14:29:02.589Z,3.00
2023-05-17T14:31:30.527Z,3.20
2023-05-17T14:33:58.980Z,5.50
2023-05-17T14:36:26.852Z,6.30
2023-05-17T14:38:54.506Z,4.70
2023-05-17T14:41:22.829Z,5.00
2023-05-17T14:43:50.344Z,5.20
2023-05-17T14:46:18.104Z,3.70
2023-05-17T14:48:45.582Z,3.40
2023-05-17T14:51:13.743Z,3.70
2023-05-17T14:53:41.233Z,3.20
2023-05-17T14:56:10.329Z,2.90
2023-05-17T14:58:38.363Z,2.90
2023-05-17T15:01:07.089Z,3.50
2023-05-17T15:03:35.439Z,12.30
2023-05-17T15:06:06.960Z,5.10
2023-05-17T15:08:36.067Z,2.70
2023-05-17T15:11:03.727Z,3.10
2023-05-17T15:13:31.092Z,3.00
2023-05-17T15:15:59.332Z,3.00
2023-05-17T15:18:27.333Z,2.70
2023-05-17T15:20:54.991Z,3.30
2023-05-17T15:23:22.400Z,12.80
2023-05-17T15:25:50.309Z,5.20
2023-05-17T15:28:20.329Z,3.30
2023-05-17T15:30:48.196Z,3.40
2023-05-17T15:33:16.265Z,8.40
2023-05-17T15:35:45.085Z,3.40
2023-05-17T15:38:13.087Z,3.40
2023-05-17T15:40:40.397Z,2.80
2023-05-17T15:43:07.880Z,2.80
2023-05-17T15:45:35.702Z,3.10
2023-05-17T15:48:03.807Z,5.10
2023-05-17T15:50:31.751Z,5.80
2023-05-17T15:53:01.757Z,3.40
2023-05-17T15:57:58.312Z,2.90
2023-05-17T16:00:25.917Z,2.80
2023-05-17T16:02:53.765Z,2.80
2023-05-17T16:05:21.810Z,3.10
2023-05-17T16:07:49.365Z,2.70
2023-05-17T16:10:17.850Z,3.00
2023-05-17T16:12:47.660Z,2.70
2023-05-17T16:15:15.563Z,2.60
2023-05-17T16:17:43.457Z,4.70
2023-05-17T16:20:12.334Z,3.90
2023-05-17T16:22:43.831Z,4.80
2023-05-17T16:25:13.296Z,3.10
2023-05-17T16:27:41.210Z,8.20
2023-05-17T16:30:09.304Z,5.70
2023-05-17T16:32:36.993Z,10.60
2023-05-17T16:35:04.847Z,4.60
2023-05-17T16:37:32.788Z,5.90
2023-05-17T16:40:00.648Z,4.00
2023-05-17T16:42:28.097Z,3.80
2023-05-17T16:44:55.864Z,4.00
2023-05-17T16:47:26.592Z,9.90
2023-05-17T16:49:57.673Z,9.80
2023-05-17T16:52:25.458Z,4.90
2023-05-17T16:54:53.368Z,4.50
2023-05-17T16:57:21.332Z,13.40
2023-05-17T16:59:49.000Z,17.60
2023-05-17T17:02:16.658Z,22.70
2023-05-17T17:04:44.624Z,15.80
2023-05-17T17:07:12.209Z,11.50
2023-05-17T17:09:39.793Z,5.30
2023-05-17T17:12:22.990Z,4.70
2023-05-17T17:14:52.098Z,7.10
2023-05-17T17:17:19.395Z,8.30
2023-05-17T17:19:46.975Z,8.70
2023-05-17T17:22:16.609Z,7.70
2023-05-17T17:24:44.773Z,6.80
2023-05-17T17:27:12.321Z,7.80
2023-05-17T17:29:39.975Z,7.60
2023-05-17T17:32:08.786Z,7.10
2023-05-17T17:34:36.448Z,6.20
2023-05-17T17:37:04.194Z,17.90
2023-05-17T17:39:32.368Z,23.90
2023-05-17T17:42:00.446Z,9.00
2023-05-17T17:44:28.478Z,6.70
2023-05-17T17:46:56.537Z,6.30
2023-05-17T17:49:24.563Z,5.80
2023-05-17T17:51:52.636Z,13.50
2023-05-17T17:54:20.905Z,36.80
2023-05-17T17:56:48.762Z,21.40
2023-05-17T17:59:17.347Z,17.10
2023-05-17T18:01:45.200Z,6.20
2023-05-17T18:04:14.840Z,4.90
2023-05-17T18:06:44.219Z,5.50
2023-05-17T18:09:11.991Z,4.70
2023-05-17T18:11:39.751Z,5.00
2023-05-17T18:14:09.097Z,4.30
2023-05-17T18:16:36.828Z,4.20
2023-05-17T18:19:04.829Z,7.90
2023-05-17T18:21:32.956Z,27.40
2023-05-17T18:24:00.824Z,8.30
2023-05-17T18:26:28.597Z,10.50
2023-05-17T18:28:56.249Z,4.90
2023-05-17T18:31:23.701Z,4.50
2023-05-17T18:33:54.278Z,4.30
2023-05-17T18:36:23.736Z,4.30
2023-05-17T18:38:52.755Z,4.20
2023-05-17T18:41:20.266Z,5.10
2023-05-17T18:43:48.152Z,3.80
2023-05-17T18:46:15.760Z,4.60
2023-05-17T18:48:43.582Z,4.20
2023-05-17T18:51:12.625Z,5.10
2023-05-17T18:53:40.057Z,5.60
2023-05-17T18:56:07.792Z,4.90
2023-05-17T18:58:35.458Z,4.80
2023-05-17T19:01:03.294Z,5.30
2023-05-17T19:03:31.532Z,6.50
2023-05-17T19:05:59.601Z,5.10
2023-05-17T19:08:28.255Z,6.10
2023-05-17T19:10:56.045Z,7.40
2023-05-17T19:13:23.708Z,8.50
2023-05-17T19:15:53.019Z,6.90
2023-05-17T19:18:21.070Z,6.30
2023-05-17T19:20:48.607Z,7.60
2023-05-17T19:23:16.274Z,6.20
2023-05-17T19:25:43.930Z,6.50
2023-05-17T19:28:11.812Z,6.70
2023-05-17T19:30:39.779Z,7.30
2023-05-17T19:33:07.615Z,6.50
2023-05-17T19:35:39.722Z,63.40
2023-05-17T19:38:07.570Z,9.80
2023-05-17T19:40:35.657Z,7.10
2023-05-17T19:43:03.299Z,5.70
2023-05-17T19:45:31.237Z,5.50
2023-05-17T19:47:58.976Z,5.00
2023-05-17T19:50:26.874Z,5.30
2023-05-17T19:52:54.999Z,5.80
2023-05-17T19:55:23.766Z,5.00
2023-05-17T19:57:51.722Z,5.50
2023-05-17T20:00:21.126Z,6.10
2023-05-17T20:02:48.851Z,5.90
2023-05-17T20:05:17.798Z,7.10
2023-05-17T20:07:46.116Z,7.50
2023-05-17T20:10:13.648Z,7.30
2023-05-17T20:12:42.199Z,7.00
2023-05-17T20:15:10.823Z,8.00
2023-05-17T20:17:40.322Z,7.70
2023-05-17T20:20:09.481Z,14.10
2023-05-17T20:22:38.274Z,24.40
2023-05-17T20:25:06.439Z,22.50
2023-05-17T20:27:34.303Z,36.70
2023-05-17T20:30:02.180Z,42.20
2023-05-17T20:32:29.975Z,62.70
2023-05-17T20:34:59.648Z,56.10
2023-05-17T20:37:27.169Z,81.50
2023-05-17T20:39:57.705Z,100.20
2023-05-17T20:42:26.824Z,121.40
2023-05-17T20:44:55.180Z,115.60
2023-05-17T20:47:22.878Z,133.70
2023-05-17T20:49:50.732Z,125.60
2023-05-17T20:52:27.796Z,114.40
2023-05-17T20:55:08.049Z,104.40
2023-05-17T20:57:36.143Z,108.70
2023-05-17T21:00:05.717Z,101.50
2023-05-17T21:02:33.633Z,106.00
2023-05-17T21:05:01.492Z,98.30
2023-05-17T21:07:30.478Z,101.10
2023-05-17T21:09:58.355Z,72.80
2023-05-17T21:12:26.015Z,72.10
2023-05-17T21:15:07.837Z,69.80
2023-05-17T21:17:41.549Z,57.60
2023-05-17T21:20:11.514Z,58.90
2023-05-17T21:22:39.083Z,59.20
2023-05-17T21:25:07.489Z,51.20
2023-05-17T21:27:35.360Z,46.50
2023-05-17T21:30:02.808Z,43.00
2023-05-17T21:32:31.098Z,42.70
2023-05-17T21:35:00.065Z,42.60
2023-05-17T21:37:27.710Z,51.30
2023-05-17T21:39:55.579Z,62.00
2023-05-17T21:42:23.261Z,73.10
2023-05-17T21:44:51.103Z,80.90
2023-05-17T21:47:18.866Z,105.30
2023-05-17T21:49:46.427Z,122.20
2023-05-17T21:52:14.098Z,127.80
2023-05-17T21:54:41.747Z,142.80
2023-05-17T21:57:09.306Z,146.30
2023-05-17T21:59:37.100Z,137.10
2023-05-17T22:02:04.856Z,137.70
2023-05-17T22:04:32.496Z,170.80
2023-05-17T22:06:59.960Z,121.80
2023-05-17T22:09:27.922Z,115.60
2023-05-17T22:11:59.094Z,90.00
2023-05-17T22:14:33.485Z,74.90
2023-05-17T22:17:01.276Z,64.00
2023-05-17T22:19:30.708Z,61.50
2023-05-17T22:21:58.420Z,73.70
2023-05-17T22:24:25.974Z,103.50
2023-05-17T22:26:53.635Z,193.90
2023-05-17T22:29:21.292Z,224.60
2023-05-17T22:31:50.425Z,217.10
2023-05-17T22:34:19.178Z,195.80
2023-05-17T22:36:46.864Z,141.10
2023-05-17T22:39:14.602Z,75.00
2023-05-17T22:41:42.372Z,33.00
2023-05-17T22:44:10.247Z,22.10
2023-05-17T22:46:38.954Z,14.50
2023-05-17T22:49:06.508Z,13.60
2023-05-17T22:51:35.752Z,12.30
2023-05-17T22:54:03.601Z,11.50
2023-05-17T22:56:31.043Z,12.00
2023-05-17T22:58:58.868Z,20.90
2023-05-17T23:01:26.839Z,32.20
2023-05-17T23:03:54.746Z,34.90
2023-05-17T23:06:22.310Z,28.40
2023-05-17T23:08:50.132Z,40.30
2023-05-17T23:11:18.405Z,26.00
2023-05-17T23:13:46.166Z,25.50
2023-05-17T23:16:14.470Z,29.10
2023-05-17T23:18:42.055Z,29.40
2023-05-17T23:21:09.969Z,22.20
2023-05-17T23:23:38.348Z,29.00
2023-05-17T23:26:06.420Z,21.40
2023-05-17T23:28:34.009Z,16.40
2023-05-17T23:31:02.624Z,27.50
2023-05-17T23:33:31.610Z,22.80
2023-05-17T23:35:59.240Z,23.70
2023-05-17T23:38:26.702Z,30.90
2023-05-17T23:40:54.305Z,54.90
2023-05-17T23:43:21.817Z,89.50
2023-05-17T23:45:49.648Z,126.10
2023-05-17T23:48:20.939Z,111.80
2023-05-17T23:50:48.563Z,100.80
2023-05-17T23:53:18.795Z,78.80
2023-05-17T23:55:46.894Z,60.20
2023-05-17T23:58:14.955Z,33.00
